sensor_id;sensor_type;location;lat;lon;timestamp;temperature;humidity
33067;DHT22;19428;49.024;8.366;2022-08-30T00:00:00;18.60;99.90
33067;DHT22;19428;49.024;8.366;2022-08-30T00:02:45;18.70;99.90
33067;DHT22;19428;49.024;8.366;2022-08-30T00:05:11;18.70;99.90
33067;DHT22;19428;49.024;8.366;2022-08-30T00:07:37;18.60;99.90
33067;DHT22;19428;49.024;8.366;2022-08-30T00:10:03;18.80;99.90
33067;DHT22;19428;49.024;8.366;2022-08-30T00:12:29;18.70;99.90
33067;DHT22;19428;49.024;8.366;2022-08-30T00:14:56;18.80;99.90
33067;DHT22;19428;49.024;8.366;2022-08-30T00:17:21;18.70;99.90
33067;DHT22;19428;49.024;8.366;2022-08-30T00:19:47;18.80;99.90
33067;DHT22;19428;49.024;8.366;2022-08-30T00:22:12;18.80;99.90
33067;DHT22;19428;49.024;8.366;2022-08-30T00:24:38;18.60;99.90
33067;DHT22;19428;49.024;8.366;2022-08-30T00:27:04;18.60;99.90
33067;DHT22;19428;49.024;8.366;2022-08-30T00:29:29;18.50;99.90
33067;DHT22;19428;49.024;8.366;2022-08-30T00:31:55;18.70;99.90
33067;DHT22;19428;49.024;8.366;2022-08-30T00:34:20;18.70;99.90
33067;DHT22;19428;49.024;8.366;2022-08-30T00:36:46;18.70;99.90
33067;DHT22;19428;49.024;8.366;2022-08-30T00:39:12;18.70;99.90
33067;DHT22;19428;49.024;8.366;2022-08-30T00:41:38;18.60;99.90
33067;DHT22;19428;49.024;8.366;2022-08-30T00:44:04;18.70;99.90
33067;DHT22;19428;49.024;8.366;2022-08-30T00:46:29;18.70;99.90
33067;DHT22;19428;49.024;8.366;2022-08-30T00:48:56;18.70;99.90
33067;DHT22;19428;49.024;8.366;2022-08-30T00:51:24;18.70;99.90
33067;DHT22;19428;49.024;8.366;2022-08-30T00:53:53;18.70;99.90
33067;DHT22;19428;49.024;8.366;2022-08-30T00:56:19;18.70;99.90
33067;DHT22;19428;49.024;8.366;2022-08-30T00:58:49;18.60;99.90
33067;DHT22;19428;49.024;8.366;2022-08-30T01:01:16;18.70;99.90
33067;DHT22;19428;49.024;8.366;2022-08-30T01:03:42;18.70;99.90
33067;DHT22;19428;49.024;8.366;2022-08-30T01:06:08;18.80;99.90
33067;DHT22;19428;49.024;8.366;2022-08-30T01:08:35;18.80;99.90
33067;DHT22;19428;49.024;8.366;2022-08-30T01:11:02;18.80;99.90
33067;DHT22;19428;49.024;8.366;2022-08-30T01:13:28;18.80;99.90
33067;DHT22;19428;49.024;8.366;2022-08-30T01:15:55;18.90;99.90
33067;DHT22;19428;49.024;8.366;2022-08-30T01:18:21;18.90;99.90
33067;DHT22;19428;49.024;8.366;2022-08-30T01:23:17;18.80;99.90
33067;DHT22;19428;49.024;8.366;2022-08-30T01:25:46;18.80;99.90
33067;DHT22;19428;49.024;8.366;2022-08-30T01:28:19;18.80;99.90
33067;DHT22;19428;49.024;8.366;2022-08-30T01:30:45;18.90;99.90
33067;DHT22;19428;49.024;8.366;2022-08-30T01:33:11;18.80;99.90
33067;DHT22;19428;49.024;8.366;2022-08-30T01:36:12;18.80;99.90
33067;DHT22;19428;49.024;8.366;2022-08-30T01:38:47;18.70;99.90
33067;DHT22;19428;49.024;8.366;2022-08-30T01:41:24;18.60;99.90
33067;DHT22;19428;49.024;8.366;2022-08-30T01:43:51;18.60;99.90
33067;DHT22;19428;49.024;8.366;2022-08-30T01:46:19;18.50;99.90
33067;DHT22;19428;49.024;8.366;2022-08-30T01:48:46;18.50;99.90
33067;DHT22;19428;49.024;8.366;2022-08-30T01:51:13;18.50;99.90
33067;DHT22;19428;49.024;8.366;2022-08-30T01:53:40;18.50;99.90
33067;DHT22;19428;49.024;8.366;2022-08-30T01:56:07;18.40;99.90
33067;DHT22;19428;49.024;8.366;2022-08-30T01:58:36;18.30;99.90
33067;DHT22;19428;49.024;8.366;2022-08-30T02:01:08;18.30;99.90
33067;DHT22;19428;49.024;8.366;2022-08-30T02:03:34;18.30;99.90
33067;DHT22;19428;49.024;8.366;2022-08-30T02:06:09;18.30;99.90
33067;DHT22;19428;49.024;8.366;2022-08-30T02:08:35;18.20;99.90
33067;DHT22;19428;49.024;8.366;2022-08-30T02:11:02;18.10;99.90
33067;DHT22;19428;49.024;8.366;2022-08-30T02:13:28;18.10;99.90
33067;DHT22;19428;49.024;8.366;2022-08-30T02:15:55;18.10;99.90
33067;DHT22;19428;49.024;8.366;2022-08-30T02:18:23;18.20;99.90
33067;DHT22;19428;49.024;8.366;2022-08-30T02:20:49;18.20;99.90
33067;DHT22;19428;49.024;8.366;2022-08-30T02:23:15;18.20;99.90
33067;DHT22;19428;49.024;8.366;2022-08-30T02:25:41;18.20;99.90
33067;DHT22;19428;49.024;8.366;2022-08-30T02:28:07;18.10;99.90
33067;DHT22;19428;49.024;8.366;2022-08-30T02:30:33;18.00;99.90
33067;DHT22;19428;49.024;8.366;2022-08-30T02:32:59;18.10;99.90
33067;DHT22;19428;49.024;8.366;2022-08-30T02:35:25;18.00;99.90
33067;DHT22;19428;49.024;8.366;2022-08-30T02:37:50;18.00;99.90
33067;DHT22;19428;49.024;8.366;2022-08-30T02:40:17;18.00;99.90
33067;DHT22;19428;49.024;8.366;2022-08-30T02:42:43;17.90;99.90
33067;DHT22;19428;49.024;8.366;2022-08-30T02:45:10;17.80;99.90
33067;DHT22;19428;49.024;8.366;2022-08-30T02:47:35;17.80;99.90
33067;DHT22;19428;49.024;8.366;2022-08-30T02:50:04;17.80;99.90
33067;DHT22;19428;49.024;8.366;2022-08-30T02:52:30;17.80;99.90
33067;DHT22;19428;49.024;8.366;2022-08-30T02:54:55;17.80;99.90
33067;DHT22;19428;49.024;8.366;2022-08-30T02:57:21;17.70;99.90
33067;DHT22;19428;49.024;8.366;2022-08-30T02:59:47;17.70;99.90
33067;DHT22;19428;49.024;8.366;2022-08-30T03:02:13;17.80;99.90
33067;DHT22;19428;49.024;8.366;2022-08-30T03:04:38;17.80;99.90
33067;DHT22;19428;49.024;8.366;2022-08-30T03:07:07;17.80;99.90
33067;DHT22;19428;49.024;8.366;2022-08-30T03:09:34;17.80;99.90
33067;DHT22;19428;49.024;8.366;2022-08-30T03:12:00;17.70;99.90
33067;DHT22;19428;49.024;8.366;2022-08-30T03:14:26;17.70;99.90
33067;DHT22;19428;49.024;8.366;2022-08-30T03:16:53;17.70;99.90
33067;DHT22;19428;49.024;8.366;2022-08-30T03:19:18;17.70;99.90
33067;DHT22;19428;49.024;8.366;2022-08-30T03:21:44;17.80;99.90
33067;DHT22;19428;49.024;8.366;2022-08-30T03:24:10;17.80;99.90
33067;DHT22;19428;49.024;8.366;2022-08-30T03:26:35;17.80;99.90
33067;DHT22;19428;49.024;8.366;2022-08-30T03:29:01;17.70;99.90
33067;DHT22;19428;49.024;8.366;2022-08-30T03:31:27;17.70;99.90
33067;DHT22;19428;49.024;8.366;2022-08-30T03:33:53;17.70;99.90
33067;DHT22;19428;49.024;8.366;2022-08-30T03:36:19;17.70;99.90
33067;DHT22;19428;49.024;8.366;2022-08-30T03:38:45;17.70;99.90
33067;DHT22;19428;49.024;8.366;2022-08-30T03:41:10;17.60;99.90
33067;DHT22;19428;49.024;8.366;2022-08-30T03:43:36;17.60;99.90
33067;DHT22;19428;49.024;8.366;2022-08-30T03:46:02;17.60;99.90
33067;DHT22;19428;49.024;8.366;2022-08-30T03:48:28;17.60;99.90
33067;DHT22;19428;49.024;8.366;2022-08-30T03:50:54;17.50;99.90
33067;DHT22;19428;49.024;8.366;2022-08-30T03:53:20;17.50;99.90
33067;DHT22;19428;49.024;8.366;2022-08-30T03:55:46;17.50;99.90
33067;DHT22;19428;49.024;8.366;2022-08-30T03:58:11;17.50;99.90
33067;DHT22;19428;49.024;8.366;2022-08-30T04:00:37;17.50;99.90
33067;DHT22;19428;49.024;8.366;2022-08-30T04:03:03;17.40;99.90
33067;DHT22;19428;49.024;8.366;2022-08-30T04:05:29;17.40;99.90
33067;DHT22;19428;49.024;8.366;2022-08-30T04:07:55;17.40;99.90
33067;DHT22;19428;49.024;8.366;2022-08-30T04:10:21;17.40;99.90
33067;DHT22;19428;49.024;8.366;2022-08-30T04:12:48;17.40;99.90
33067;DHT22;19428;49.024;8.366;2022-08-30T04:15:15;17.40;99.90
33067;DHT22;19428;49.024;8.366;2022-08-30T04:17:40;17.40;99.90
33067;DHT22;19428;49.024;8.366;2022-08-30T04:20:07;17.40;99.90
33067;DHT22;19428;49.024;8.366;2022-08-30T04:22:32;17.40;99.90
33067;DHT22;19428;49.024;8.366;2022-08-30T04:24:58;17.40;99.90
33067;DHT22;19428;49.024;8.366;2022-08-30T04:27:24;17.30;99.90
33067;DHT22;19428;49.024;8.366;2022-08-30T04:29:49;17.30;99.90
33067;DHT22;19428;49.024;8.366;2022-08-30T04:32:15;17.30;99.90
33067;DHT22;19428;49.024;8.366;2022-08-30T04:34:41;17.30;99.90
33067;DHT22;19428;49.024;8.366;2022-08-30T04:37:07;17.30;99.90
33067;DHT22;19428;49.024;8.366;2022-08-30T04:39:33;17.20;99.90
33067;DHT22;19428;49.024;8.366;2022-08-30T04:41:58;17.20;99.90
33067;DHT22;19428;49.024;8.366;2022-08-30T04:44:24;17.00;99.90
33067;DHT22;19428;49.024;8.366;2022-08-30T04:46:52;17.10;99.90
33067;DHT22;19428;49.024;8.366;2022-08-30T04:49:17;17.10;99.90
33067;DHT22;19428;49.024;8.366;2022-08-30T04:51:43;17.10;99.90
33067;DHT22;19428;49.024;8.366;2022-08-30T04:54:09;17.00;99.90
33067;DHT22;19428;49.024;8.366;2022-08-30T04:56:34;17.00;99.90
33067;DHT22;19428;49.024;8.366;2022-08-30T04:59:01;17.10;99.90
33067;DHT22;19428;49.024;8.366;2022-08-30T05:01:31;17.10;99.90
33067;DHT22;19428;49.024;8.366;2022-08-30T05:03:58;17.20;99.90
33067;DHT22;19428;49.024;8.366;2022-08-30T05:06:26;17.10;99.90
33067;DHT22;19428;49.024;8.366;2022-08-30T05:08:52;17.10;99.90
33067;DHT22;19428;49.024;8.366;2022-08-30T05:11:18;17.00;99.90
33067;DHT22;19428;49.024;8.366;2022-08-30T05:13:45;17.10;99.90
33067;DHT22;19428;49.024;8.366;2022-08-30T05:16:12;17.10;99.90
33067;DHT22;19428;49.024;8.366;2022-08-30T05:18:43;17.10;99.90
33067;DHT22;19428;49.024;8.366;2022-08-30T05:21:14;17.10;99.90
33067;DHT22;19428;49.024;8.366;2022-08-30T05:23:41;17.10;99.90
33067;DHT22;19428;49.024;8.366;2022-08-30T05:26:10;17.10;99.90
33067;DHT22;19428;49.024;8.366;2022-08-30T05:28:36;17.10;99.90
33067;DHT22;19428;49.024;8.366;2022-08-30T05:31:08;17.20;99.90
33067;DHT22;19428;49.024;8.366;2022-08-30T05:33:36;17.30;99.90
33067;DHT22;19428;49.024;8.366;2022-08-30T05:36:05;17.30;99.90
33067;DHT22;19428;49.024;8.366;2022-08-30T05:38:31;17.30;99.90
33067;DHT22;19428;49.024;8.366;2022-08-30T05:40:56;17.40;99.90
33067;DHT22;19428;49.024;8.366;2022-08-30T05:43:22;17.50;99.90
33067;DHT22;19428;49.024;8.366;2022-08-30T05:45:47;17.60;99.90
33067;DHT22;19428;49.024;8.366;2022-08-30T05:48:13;17.70;99.90
33067;DHT22;19428;49.024;8.366;2022-08-30T05:50:39;17.80;99.90
33067;DHT22;19428;49.024;8.366;2022-08-30T05:53:04;17.90;99.90
33067;DHT22;19428;49.024;8.366;2022-08-30T05:55:30;17.90;99.90
33067;DHT22;19428;49.024;8.366;2022-08-30T05:57:55;18.10;99.90
33067;DHT22;19428;49.024;8.366;2022-08-30T06:00:21;18.10;99.90
33067;DHT22;19428;49.024;8.366;2022-08-30T06:02:51;18.20;99.90
33067;DHT22;19428;49.024;8.366;2022-08-30T06:05:17;18.30;99.90
33067;DHT22;19428;49.024;8.366;2022-08-30T06:07:43;18.20;99.90
33067;DHT22;19428;49.024;8.366;2022-08-30T06:10:09;18.30;99.90
33067;DHT22;19428;49.024;8.366;2022-08-30T06:12:36;18.40;99.90
33067;DHT22;19428;49.024;8.366;2022-08-30T06:15:02;18.30;99.90
33067;DHT22;19428;49.024;8.366;2022-08-30T06:17:28;18.30;99.90
33067;DHT22;19428;49.024;8.366;2022-08-30T06:19:53;18.40;99.90
33067;DHT22;19428;49.024;8.366;2022-08-30T06:22:19;18.50;99.90
33067;DHT22;19428;49.024;8.366;2022-08-30T06:24:44;18.60;99.90
33067;DHT22;19428;49.024;8.366;2022-08-30T06:27:10;18.60;99.90
33067;DHT22;19428;49.024;8.366;2022-08-30T06:29:35;18.70;99.90
33067;DHT22;19428;49.024;8.366;2022-08-30T06:32:01;18.70;99.90
33067;DHT22;19428;49.024;8.366;2022-08-30T06:34:27;18.70;99.90
33067;DHT22;19428;49.024;8.366;2022-08-30T06:36:53;18.70;99.90
33067;DHT22;19428;49.024;8.366;2022-08-30T06:39:19;18.80;99.90
33067;DHT22;19428;49.024;8.366;2022-08-30T06:41:44;19.00;99.90
33067;DHT22;19428;49.024;8.366;2022-08-30T06:44:10;19.10;99.90
33067;DHT22;19428;49.024;8.366;2022-08-30T06:46:37;19.40;99.90
33067;DHT22;19428;49.024;8.366;2022-08-30T06:49:03;19.40;99.90
33067;DHT22;19428;49.024;8.366;2022-08-30T06:51:32;19.50;99.90
33067;DHT22;19428;49.024;8.366;2022-08-30T06:53:59;19.50;99.90
33067;DHT22;19428;49.024;8.366;2022-08-30T06:56:26;19.50;99.90
33067;DHT22;19428;49.024;8.366;2022-08-30T06:58:52;19.60;99.90
33067;DHT22;19428;49.024;8.366;2022-08-30T07:01:21;19.80;99.90
33067;DHT22;19428;49.024;8.366;2022-08-30T07:03:47;19.90;99.90
33067;DHT22;19428;49.024;8.366;2022-08-30T07:06:13;19.90;99.90
33067;DHT22;19428;49.024;8.366;2022-08-30T07:08:39;20.00;99.90
33067;DHT22;19428;49.024;8.366;2022-08-30T07:11:05;20.30;99.90
33067;DHT22;19428;49.024;8.366;2022-08-30T07:13:32;20.20;99.90
33067;DHT22;19428;49.024;8.366;2022-08-30T07:15:58;20.30;99.90
33067;DHT22;19428;49.024;8.366;2022-08-30T07:18:24;20.60;99.90
33067;DHT22;19428;49.024;8.366;2022-08-30T07:21:11;20.50;99.90
33067;DHT22;19428;49.024;8.366;2022-08-30T07:23:37;20.40;99.90
33067;DHT22;19428;49.024;8.366;2022-08-30T07:26:09;20.40;99.90
33067;DHT22;19428;49.024;8.366;2022-08-30T07:28:39;20.50;99.90
33067;DHT22;19428;49.024;8.366;2022-08-30T07:31:05;20.60;99.90
33067;DHT22;19428;49.024;8.366;2022-08-30T07:33:31;20.50;99.90
33067;DHT22;19428;49.024;8.366;2022-08-30T07:35:57;20.60;99.90
33067;DHT22;19428;49.024;8.366;2022-08-30T07:38:24;20.80;99.90
33067;DHT22;19428;49.024;8.366;2022-08-30T07:40:50;20.80;99.90
33067;DHT22;19428;49.024;8.366;2022-08-30T07:43:15;21.00;99.90
33067;DHT22;19428;49.024;8.366;2022-08-30T07:45:41;21.10;99.90
33067;DHT22;19428;49.024;8.366;2022-08-30T07:48:06;21.00;99.90
33067;DHT22;19428;49.024;8.366;2022-08-30T07:50:32;21.30;99.90
33067;DHT22;19428;49.024;8.366;2022-08-30T07:52:58;21.40;99.90
33067;DHT22;19428;49.024;8.366;2022-08-30T07:55:23;21.50;99.90
33067;DHT22;19428;49.024;8.366;2022-08-30T07:57:49;21.50;99.90
33067;DHT22;19428;49.024;8.366;2022-08-30T08:00:16;21.70;99.90
33067;DHT22;19428;49.024;8.366;2022-08-30T08:02:41;21.80;99.90
33067;DHT22;19428;49.024;8.366;2022-08-30T08:05:08;21.80;99.90
33067;DHT22;19428;49.024;8.366;2022-08-30T08:07:35;21.80;99.90
33067;DHT22;19428;49.024;8.366;2022-08-30T08:10:01;21.80;99.90
33067;DHT22;19428;49.024;8.366;2022-08-30T08:12:28;22.00;99.90
33067;DHT22;19428;49.024;8.366;2022-08-30T08:14:53;21.80;99.90
33067;DHT22;19428;49.024;8.366;2022-08-30T08:17:19;22.00;99.90
33067;DHT22;19428;49.024;8.366;2022-08-30T08:19:44;22.10;99.90
33067;DHT22;19428;49.024;8.366;2022-08-30T08:22:11;22.00;99.90
33067;DHT22;19428;49.024;8.366;2022-08-30T08:24:37;22.10;99.90
33067;DHT22;19428;49.024;8.366;2022-08-30T08:27:03;22.30;99.90
33067;DHT22;19428;49.024;8.366;2022-08-30T08:29:28;22.40;99.90
33067;DHT22;19428;49.024;8.366;2022-08-30T08:31:54;22.30;99.90
33067;DHT22;19428;49.024;8.366;2022-08-30T08:34:21;22.20;99.90
33067;DHT22;19428;49.024;8.366;2022-08-30T08:36:48;22.40;99.90
33067;DHT22;19428;49.024;8.366;2022-08-30T08:39:14;22.40;99.90
33067;DHT22;19428;49.024;8.366;2022-08-30T08:50:01;22.90;99.90
33067;DHT22;19428;49.024;8.366;2022-08-30T08:52:49;23.10;99.90
33067;DHT22;19428;49.024;8.366;2022-08-30T08:55:34;23.20;99.90
33067;DHT22;19428;49.024;8.366;2022-08-30T08:58:02;23.40;99.90
33067;DHT22;19428;49.024;8.366;2022-08-30T09:00:27;23.60;99.90
33067;DHT22;19428;49.024;8.366;2022-08-30T09:03:00;23.60;99.90
33067;DHT22;19428;49.024;8.366;2022-08-30T09:05:33;23.70;99.90
33067;DHT22;19428;49.024;8.366;2022-08-30T09:08:02;24.00;99.90
33067;DHT22;19428;49.024;8.366;2022-08-30T09:10:31;23.70;99.90
33067;DHT22;19428;49.024;8.366;2022-08-30T09:12:57;23.90;99.90
33067;DHT22;19428;49.024;8.366;2022-08-30T09:15:32;23.80;99.90
33067;DHT22;19428;49.024;8.366;2022-08-30T09:18:06;24.10;99.90
33067;DHT22;19428;49.024;8.366;2022-08-30T09:20:43;24.30;99.90
33067;DHT22;19428;49.024;8.366;2022-08-30T09:26:09;24.70;99.90
33067;DHT22;19428;49.024;8.366;2022-08-30T09:28:47;24.80;99.90
33067;DHT22;19428;49.024;8.366;2022-08-30T09:31:18;24.90;99.90
33067;DHT22;19428;49.024;8.366;2022-08-30T09:36:25;25.00;99.90
33067;DHT22;19428;49.024;8.366;2022-08-30T09:39:06;25.30;99.90
33067;DHT22;19428;49.024;8.366;2022-08-30T09:41:41;25.60;99.90
33067;DHT22;19428;49.024;8.366;2022-08-30T09:44:13;25.50;99.90
33067;DHT22;19428;49.024;8.366;2022-08-30T09:46:54;25.50;99.90
33067;DHT22;19428;49.024;8.366;2022-08-30T09:49:41;25.80;99.90
33067;DHT22;19428;49.024;8.366;2022-08-30T09:58:06;26.10;99.90
33067;DHT22;19428;49.024;8.366;2022-08-30T10:00:43;26.30;99.90
33067;DHT22;19428;49.024;8.366;2022-08-30T10:08:49;26.40;99.90
33067;DHT22;19428;49.024;8.366;2022-08-30T10:13:58;26.40;99.90
33067;DHT22;19428;49.024;8.366;2022-08-30T10:16:44;26.70;99.90
33067;DHT22;19428;49.024;8.366;2022-08-30T10:24:55;26.40;99.90
33067;DHT22;19428;49.024;8.366;2022-08-30T10:27:29;26.70;99.90
33067;DHT22;19428;49.024;8.366;2022-08-30T10:30:06;26.60;99.90
33067;DHT22;19428;49.024;8.366;2022-08-30T10:32:58;26.70;99.90
33067;DHT22;19428;49.024;8.366;2022-08-30T10:35:29;26.70;99.90
33067;DHT22;19428;49.024;8.366;2022-08-30T10:38:05;26.70;99.90
33067;DHT22;19428;49.024;8.366;2022-08-30T10:40:37;26.70;99.90
33067;DHT22;19428;49.024;8.366;2022-08-30T10:43:47;26.80;99.90
33067;DHT22;19428;49.024;8.366;2022-08-30T10:49:04;27.30;99.90
33067;DHT22;19428;49.024;8.366;2022-08-30T10:51:50;27.00;99.90
33067;DHT22;19428;49.024;8.366;2022-08-30T10:54:22;27.10;99.90
33067;DHT22;19428;49.024;8.366;2022-08-30T10:56:51;27.20;99.90
33067;DHT22;19428;49.024;8.366;2022-08-30T10:59:18;27.40;99.90
33067;DHT22;19428;49.024;8.366;2022-08-30T11:10:04;27.70;99.90
33067;DHT22;19428;49.024;8.366;2022-08-30T11:16:04;28.00;99.90
33067;DHT22;19428;49.024;8.366;2022-08-30T11:18:45;28.10;99.90
33067;DHT22;19428;49.024;8.366;2022-08-30T11:21:32;27.90;99.90
33067;DHT22;19428;49.024;8.366;2022-08-30T11:23:58;28.10;99.90
33067;DHT22;19428;49.024;8.366;2022-08-30T11:29:31;27.90;99.90
33067;DHT22;19428;49.024;8.366;2022-08-30T11:32:21;27.90;99.90
33067;DHT22;19428;49.024;8.366;2022-08-30T11:42:52;28.10;99.90
33067;DHT22;19428;49.024;8.366;2022-08-30T11:47:49;28.40;99.90
33067;DHT22;19428;49.024;8.366;2022-08-30T11:51:07;29.00;99.90
33067;DHT22;19428;49.024;8.366;2022-08-30T12:04:02;29.20;98.00
33067;DHT22;19428;49.024;8.366;2022-08-30T12:09:08;30.30;96.60
33067;DHT22;19428;49.024;8.366;2022-08-30T12:14:01;29.70;96.80
33067;DHT22;19428;49.024;8.366;2022-08-30T12:16:43;29.40;95.60
33067;DHT22;19428;49.024;8.366;2022-08-30T12:19:31;29.50;96.10
33067;DHT22;19428;49.024;8.366;2022-08-30T12:21:59;29.30;96.80
33067;DHT22;19428;49.024;8.366;2022-08-30T12:24:29;29.10;95.80
33067;DHT22;19428;49.024;8.366;2022-08-30T12:26:56;29.30;96.20
33067;DHT22;19428;49.024;8.366;2022-08-30T12:29:28;29.70;94.50
33067;DHT22;19428;49.024;8.366;2022-08-30T12:32:14;30.20;95.00
33067;DHT22;19428;49.024;8.366;2022-08-30T12:37:31;30.40;94.00
33067;DHT22;19428;49.024;8.366;2022-08-30T12:40:09;30.20;92.80
33067;DHT22;19428;49.024;8.366;2022-08-30T12:42:40;30.50;94.00
33067;DHT22;19428;49.024;8.366;2022-08-30T12:45:13;30.70;92.60
33067;DHT22;19428;49.024;8.366;2022-08-30T12:47:46;30.50;92.50
33067;DHT22;19428;49.024;8.366;2022-08-30T12:50:17;30.70;93.40
33067;DHT22;19428;49.024;8.366;2022-08-30T12:52:46;31.20;91.60
33067;DHT22;19428;49.024;8.366;2022-08-30T12:55:22;31.00;92.20
33067;DHT22;19428;49.024;8.366;2022-08-30T12:57:59;30.00;92.50
33067;DHT22;19428;49.024;8.366;2022-08-30T13:00:34;30.60;92.00
33067;DHT22;19428;49.024;8.366;2022-08-30T13:03:32;30.50;92.60
33067;DHT22;19428;49.024;8.366;2022-08-30T13:05:58;30.20;92.50
33067;DHT22;19428;49.024;8.366;2022-08-30T13:08:36;29.70;92.80
33067;DHT22;19428;49.024;8.366;2022-08-30T13:18:43;31.10;90.60
33067;DHT22;19428;49.024;8.366;2022-08-30T13:23:57;31.80;88.20
33067;DHT22;19428;49.024;8.366;2022-08-30T13:26:23;30.80;90.50
33067;DHT22;19428;49.024;8.366;2022-08-30T13:28:55;30.60;90.50
33067;DHT22;19428;49.024;8.366;2022-08-30T13:31:22;30.40;90.70
33067;DHT22;19428;49.024;8.366;2022-08-30T13:33:48;30.20;91.60
33067;DHT22;19428;49.024;8.366;2022-08-30T13:36:19;30.50;90.30
33067;DHT22;19428;49.024;8.366;2022-08-30T13:38:46;30.60;90.60
33067;DHT22;19428;49.024;8.366;2022-08-30T13:41:11;30.40;90.30
33067;DHT22;19428;49.024;8.366;2022-08-30T13:43:37;30.70;91.40
33067;DHT22;19428;49.024;8.366;2022-08-30T13:46:03;30.50;90.70
33067;DHT22;19428;49.024;8.366;2022-08-30T13:48:30;30.30;91.10
33067;DHT22;19428;49.024;8.366;2022-08-30T13:50:56;31.10;90.60
33067;DHT22;19428;49.024;8.366;2022-08-30T13:53:22;30.90;90.60
33067;DHT22;19428;49.024;8.366;2022-08-30T13:55:47;31.00;89.70
33067;DHT22;19428;49.024;8.366;2022-08-30T13:58:13;30.50;90.60
33067;DHT22;19428;49.024;8.366;2022-08-30T14:00:41;30.50;90.10
33067;DHT22;19428;49.024;8.366;2022-08-30T14:03:06;31.30;89.40
33067;DHT22;19428;49.024;8.366;2022-08-30T14:05:35;30.90;86.80
33067;DHT22;19428;49.024;8.366;2022-08-30T14:08:02;30.60;88.00
33067;DHT22;19428;49.024;8.366;2022-08-30T14:10:29;30.10;89.10
33067;DHT22;19428;49.024;8.366;2022-08-30T14:12:55;30.30;90.40
33067;DHT22;19428;49.024;8.366;2022-08-30T14:15:20;29.90;90.10
33067;DHT22;19428;49.024;8.366;2022-08-30T14:17:46;30.30;90.60
33067;DHT22;19428;49.024;8.366;2022-08-30T14:20:12;30.40;90.70
33067;DHT22;19428;49.024;8.366;2022-08-30T14:22:37;30.00;90.60
33067;DHT22;19428;49.024;8.366;2022-08-30T14:25:04;30.00;91.10
33067;DHT22;19428;49.024;8.366;2022-08-30T14:27:30;30.40;90.90
33067;DHT22;19428;49.024;8.366;2022-08-30T14:29:56;30.70;91.10
33067;DHT22;19428;49.024;8.366;2022-08-30T14:32:22;30.20;89.40
33067;DHT22;19428;49.024;8.366;2022-08-30T14:34:48;30.20;91.30
33067;DHT22;19428;49.024;8.366;2022-08-30T14:37:14;29.90;90.50
33067;DHT22;19428;49.024;8.366;2022-08-30T14:39:39;29.80;90.40
33067;DHT22;19428;49.024;8.366;2022-08-30T14:42:06;30.20;90.70
33067;DHT22;19428;49.024;8.366;2022-08-30T14:44:32;30.30;90.00
33067;DHT22;19428;49.024;8.366;2022-08-30T14:46:58;30.20;89.40
33067;DHT22;19428;49.024;8.366;2022-08-30T14:49:24;30.50;90.10
33067;DHT22;19428;49.024;8.366;2022-08-30T14:51:51;30.80;88.70
33067;DHT22;19428;49.024;8.366;2022-08-30T14:54:20;30.50;90.20
33067;DHT22;19428;49.024;8.366;2022-08-30T14:56:46;29.80;88.70
33067;DHT22;19428;49.024;8.366;2022-08-30T14:59:12;30.20;89.20
33067;DHT22;19428;49.024;8.366;2022-08-30T15:01:39;30.20;87.80
33067;DHT22;19428;49.024;8.366;2022-08-30T15:04:06;30.20;88.30
33067;DHT22;19428;49.024;8.366;2022-08-30T15:06:33;30.30;87.70
33067;DHT22;19428;49.024;8.366;2022-08-30T15:08:59;29.90;87.80
33067;DHT22;19428;49.024;8.366;2022-08-30T15:11:25;30.10;90.20
33067;DHT22;19428;49.024;8.366;2022-08-30T15:13:52;29.80;88.10
33067;DHT22;19428;49.024;8.366;2022-08-30T15:16:22;29.80;88.80
33067;DHT22;19428;49.024;8.366;2022-08-30T15:18:48;29.80;89.60
33067;DHT22;19428;49.024;8.366;2022-08-30T15:21:20;30.00;88.40
33067;DHT22;19428;49.024;8.366;2022-08-30T15:23:46;29.90;88.00
33067;DHT22;19428;49.024;8.366;2022-08-30T15:26:13;30.00;87.40
33067;DHT22;19428;49.024;8.366;2022-08-30T15:28:38;30.20;85.80
33067;DHT22;19428;49.024;8.366;2022-08-30T15:31:04;30.10;86.10
33067;DHT22;19428;49.024;8.366;2022-08-30T15:33:30;30.90;85.40
33067;DHT22;19428;49.024;8.366;2022-08-30T15:35:59;30.10;85.20
33067;DHT22;19428;49.024;8.366;2022-08-30T15:38:26;29.80;84.90
33067;DHT22;19428;49.024;8.366;2022-08-30T15:40:52;29.80;85.60
33067;DHT22;19428;49.024;8.366;2022-08-30T15:43:18;30.20;86.00
33067;DHT22;19428;49.024;8.366;2022-08-30T15:45:43;30.00;85.70
33067;DHT22;19428;49.024;8.366;2022-08-30T15:48:09;29.60;85.50
33067;DHT22;19428;49.024;8.366;2022-08-30T15:50:35;29.40;86.10
33067;DHT22;19428;49.024;8.366;2022-08-30T15:53:01;29.40;86.70
33067;DHT22;19428;49.024;8.366;2022-08-30T15:55:27;29.60;86.40
33067;DHT22;19428;49.024;8.366;2022-08-30T15:57:56;29.60;88.00
33067;DHT22;19428;49.024;8.366;2022-08-30T16:00:21;29.40;86.10
33067;DHT22;19428;49.024;8.366;2022-08-30T16:02:47;29.30;86.80
33067;DHT22;19428;49.024;8.366;2022-08-30T16:05:14;29.20;85.80
33067;DHT22;19428;49.024;8.366;2022-08-30T16:07:40;29.00;86.50
33067;DHT22;19428;49.024;8.366;2022-08-30T16:10:06;29.30;86.30
33067;DHT22;19428;49.024;8.366;2022-08-30T16:12:31;29.50;85.30
33067;DHT22;19428;49.024;8.366;2022-08-30T16:14:57;29.40;84.10
33067;DHT22;19428;49.024;8.366;2022-08-30T16:17:22;29.60;83.50
33067;DHT22;19428;49.024;8.366;2022-08-30T16:19:48;29.60;85.20
33067;DHT22;19428;49.024;8.366;2022-08-30T16:22:14;29.50;86.20
33067;DHT22;19428;49.024;8.366;2022-08-30T16:24:40;29.30;86.40
33067;DHT22;19428;49.024;8.366;2022-08-30T16:27:06;29.10;86.00
33067;DHT22;19428;49.024;8.366;2022-08-30T16:29:33;28.90;85.10
33067;DHT22;19428;49.024;8.366;2022-08-30T16:31:59;28.70;85.90
33067;DHT22;19428;49.024;8.366;2022-08-30T16:34:24;28.60;85.40
33067;DHT22;19428;49.024;8.366;2022-08-30T16:36:50;28.50;85.70
33067;DHT22;19428;49.024;8.366;2022-08-30T16:39:16;28.40;87.90
33067;DHT22;19428;49.024;8.366;2022-08-30T16:41:42;28.40;86.10
33067;DHT22;19428;49.024;8.366;2022-08-30T16:44:08;28.30;86.50
33067;DHT22;19428;49.024;8.366;2022-08-30T16:46:35;28.30;87.30
33067;DHT22;19428;49.024;8.366;2022-08-30T16:49:00;28.20;86.00
33067;DHT22;19428;49.024;8.366;2022-08-30T16:51:28;28.20;85.90
33067;DHT22;19428;49.024;8.366;2022-08-30T16:53:56;28.10;86.00
33067;DHT22;19428;49.024;8.366;2022-08-30T16:56:24;28.10;87.20
33067;DHT22;19428;49.024;8.366;2022-08-30T16:58:52;28.00;86.50
33067;DHT22;19428;49.024;8.366;2022-08-30T17:01:19;28.00;87.20
33067;DHT22;19428;49.024;8.366;2022-08-30T17:03:45;28.00;86.90
33067;DHT22;19428;49.024;8.366;2022-08-30T17:06:11;27.90;87.80
33067;DHT22;19428;49.024;8.366;2022-08-30T17:08:36;28.00;88.40